Time;durP1;ratioP1;P1;durP2;ratioP2;P2;SDS_P1;SDS_P2;PMS_P1;PMS_P2;Temp;Humidity;BMP_temperature;BMP_pressure;BME280_temperature;BME280_humidity;BME280_pressure;Samples;Min_cycle;Max_cycle;Signal;HPM_P1;HPM_P2
2023/02/24 00:01:11;;;;;;;26.08;13.13;;;;;;;6.84;91.58;99700.06;5113217;28;20020;-69
2023/02/24 00:03:36;;;;;;;21.98;12.15;;;;;;;6.91;91.25;99701.63;5126024;28;20030;-69
2023/02/24 00:06:10;;;;;;;19.10;12.50;;;;;;;6.78;92.77;99700.44;5122687;27;20023;-69
2023/02/24 00:08:38;;;;;;;17.05;11.35;;;;;;;6.77;92.47;99702.41;5108943;28;20409;-69
2023/02/24 00:11:12;;;;;;;21.65;12.90;;;;;;;6.74;93.57;99695.50;5122049;28;20031;-69
2023/02/24 00:13:45;;;;;;;25.48;13.88;;;;;;;6.75;93.85;99690.75;5117455;27;20058;-69
2023/02/24 00:16:18;;;;;;;22.73;12.30;;;;;;;6.80;93.29;99681.50;5111578;28;20027;-69
2023/02/24 00:18:44;;;;;;;20.40;12.02;;;;;;;6.73;93.97;99691.06;5108552;28;20015;-69
2023/02/24 00:21:13;;;;;;;22.40;12.05;;;;;;;6.71;94.50;99681.38;5111553;28;20494;-69
2023/02/24 00:23:40;;;;;;;25.30;11.45;;;;;;;6.73;94.82;99676.31;5114614;28;20142;-69
2023/02/24 00:26:08;;;;;;;25.98;12.82;;;;;;;6.69;94.90;99678.88;5111238;28;20035;-69
2023/02/24 00:28:34;;;;;;;24.10;12.55;;;;;;;6.66;95.38;99676.72;5108583;28;20027;-69
2023/02/24 00:31:04;;;;;;;23.85;12.52;;;;;;;6.67;95.53;99674.78;5123405;28;20023;-69
2023/02/24 00:33:30;;;;;;;21.17;11.57;;;;;;;6.49;97.10;99670.91;5121093;27;20077;-69
2023/02/24 00:36:08;;;;;;;26.60;14.25;;;;;;;6.51;98.07;99671.44;5113718;28;20043;-69
2023/02/24 00:38:35;;;;;;;26.67;12.77;;;;;;;6.63;97.64;99670.94;5113841;28;20511;-69
2023/02/24 00:41:07;;;;;;;28.33;12.70;;;;;;;6.64;96.79;99673.44;5119955;27;20050;-69
2023/02/24 00:43:36;;;;;;;23.77;12.35;;;;;;;6.62;97.23;99670.13;5131830;27;20088;-69
2023/02/24 00:46:09;;;;;;;26.08;12.52;;;;;;;6.55;98.22;99669.69;5118868;27;20046;-69
2023/02/24 00:48:39;;;;;;;26.67;13.57;;;;;;;6.58;98.65;99681.03;5113661;28;20015;-69
2023/02/24 00:51:12;;;;;;;35.85;14.57;;;;;;;6.50;98.72;99673.38;5127717;27;20019;-69
2023/02/24 00:53:38;;;;;;;24.55;14.52;;;;;;;6.55;98.96;99664.13;5117761;27;20486;-69
2023/02/24 00:56:10;;;;;;;31.90;14.50;;;;;;;6.54;98.54;99666.09;5114671;28;20032;-69
2023/02/24 00:58:37;;;;;;;24.85;13.38;;;;;;;6.52;99.14;99653.63;5109931;28;20486;-69
2023/02/24 01:01:04;;;;;;;29.15;16.05;;;;;;;6.58;98.70;99644.09;5126937;27;20408;-69
2023/02/24 01:03:32;;;;;;;30.55;15.43;;;;;;;6.45;98.76;99642.88;5118853;27;20393;-69
2023/02/24 01:06:05;;;;;;;29.48;15.98;;;;;;;6.36;99.85;99644.69;5114566;28;20111;-69
2023/02/24 01:08:35;;;;;;;25.75;14.55;;;;;;;6.43;99.80;99645.16;5112693;28;20030;-69
2023/02/24 01:13:46;;;;;;;40.90;15.23;;;;;;;6.49;98.95;99645.91;5116783;27;20124;-69
2023/02/24 01:16:13;;;;;;;30.17;15.25;;;;;;;6.40;99.28;99637.44;5114852;27;20047;-69
2023/02/24 01:18:40;;;;;;;32.40;16.25;;;;;;;6.36;99.82;99633.59;5113092;28;20054;-69
2023/02/24 01:21:06;;;;;;;29.50;15.07;;;;;;;6.40;99.23;99632.69;5125706;27;20132;-69
2023/02/24 01:23:32;;;;;;;39.05;14.50;;;;;;;6.27;100.00;99630.69;5115503;27;20130;-69
2023/02/24 01:25:58;;;;;;;32.60;15.77;;;;;;;6.21;100.00;99632.72;5114005;28;20089;-69
2023/02/24 01:28:27;;;;;;;27.48;15.90;;;;;;;6.18;100.00;99625.78;5114321;27;20090;-69
2023/02/24 01:30:53;;;;;;;41.28;15.98;;;;;;;6.16;100.00;99625.28;5112662;27;20028;-69
2023/02/24 01:33:20;;;;;;;39.42;18.52;;;;;;;6.28;100.00;99627.63;5126120;27;20095;-69
2023/02/24 01:35:46;;;;;;;42.95;15.35;;;;;;;6.17;100.00;99626.94;5134356;27;20019;-69
2023/02/24 01:38:11;;;;;;;33.60;16.35;;;;;;;6.25;100.00;99619.84;5119950;27;20054;-69
2023/02/24 01:40:37;;;;;;;36.63;16.38;;;;;;;6.17;100.00;99617.78;5119824;27;20038;-69
2023/02/24 01:43:07;;;;;;;32.05;17.92;;;;;;;6.21;100.00;99627.16;5123077;27;20031;-69
2023/02/24 01:45:35;;;;;;;;;;;;;;;6.23;100.00;99630.44;5125083;27;20546;-69
2023/02/24 01:48:05;;;;;;;31.40;16.83;;;;;;;6.17;100.00;99628.91;5114578;27;20375;-69
2023/02/24 01:50:34;;;;;;;37.00;16.92;;;;;;;6.26;100.00;99629.03;5119507;27;20025;-69
2023/02/24 01:53:03;;;;;;;35.77;17.27;;;;;;;6.36;99.97;99628.88;5120525;27;20024;-69
2023/02/24 01:55:31;;;;;;;41.67;17.35;;;;;;;6.27;100.00;99625.13;5113391;28;20015;-69
2023/02/24 01:57:59;;;;;;;42.28;19.00;;;;;;;6.29;100.00;99620.09;5112540;28;20026;-69
2023/02/24 02:00:36;;;;;;;49.25;18.00;;;;;;;6.13;100.00;99617.56;5117043;27;20497;-69
2023/02/24 02:03:07;;;;;;;38.35;17.48;;;;;;;6.22;100.00;99611.31;5120451;27;20030;-69
2023/02/24 02:05:33;;;;;;;32.60;17.17;;;;;;;6.19;100.00;99618.31;5113200;28;20024;-69
2023/02/24 02:07:59;;;;;;;37.78;16.98;;;;;;;6.15;99.77;99617.25;5112279;28;20061;-69
2023/02/24 02:10:27;;;;;;;31.95;16.05;;;;;;;6.23;99.53;99619.34;5116314;27;20026;-70
2023/02/24 02:12:53;;;;;;;33.00;16.17;;;;;;;6.14;99.23;99613.66;5123331;27;20090;-69
2023/02/24 02:15:19;;;;;;;35.50;15.05;;;;;;;6.04;99.35;99617.44;5122921;27;20394;-69
2023/02/24 02:17:50;;;;;;;32.50;15.30;;;;;;;6.16;99.10;99630.03;5124016;27;20084;-69
2023/02/24 02:20:24;;;;;;;32.72;16.10;;;;;;;6.15;98.88;99626.41;5115218;27;20030;-69
2023/02/24 02:23:08;;;;;;;38.28;17.35;;;;;;;6.22;98.56;99628.00;5123047;27;20561;-69
2023/02/24 02:26:05;;;;;;;35.95;14.40;;;;;;;6.19;98.43;99629.41;5111408;28;20153;-69
2023/02/24 02:28:40;;;;;;;28.63;14.35;;;;;;;6.09;97.76;99630.38;5110616;28;20422;-69
2023/02/24 02:31:20;;;;;;;25.83;13.18;;;;;;;6.10;98.11;99629.28;5117382;27;20031;-69
2023/02/24 02:34:14;;;;;;;31.80;14.43;;;;;;;6.19;96.97;99632.19;5116658;27;20023;-69
2023/02/24 02:37:00;;;;;;;33.75;14.85;;;;;;;6.23;96.85;99636.00;5102061;28;20059;-69
2023/02/24 02:39:57;;;;;;;30.33;13.13;;;;;;;6.21;95.98;99637.44;5112446;28;20035;-69
2023/02/24 02:42:40;;;;;;;31.52;14.18;;;;;;;6.28;95.36;99633.16;5120691;27;20019;-69
2023/02/24 02:45:16;;;;;;;29.10;12.23;;;;;;;6.22;95.69;99651.03;5113506;27;20032;-69
2023/02/24 02:47:45;;;;;;;24.05;12.55;;;;;;;6.14;95.26;99657.25;5105339;28;20032;-69
2023/02/24 02:50:46;;;;;;;29.50;13.82;;;;;;;6.08;95.72;99650.13;5095759;28;20452;-69
2023/02/24 02:53:25;;;;;;;26.05;13.23;;;;;;;6.23;94.74;99652.69;5112622;27;20115;-69
2023/02/24 02:56:01;;;;;;;32.20;13.85;;;;;;;6.14;95.20;99660.88;5112070;28;20024;-69
2023/02/24 02:58:32;;;;;;;27.20;14.27;;;;;;;6.11;94.78;99655.09;5111613;28;20050;-69
2023/02/24 03:01:02;;;;;;;29.00;11.77;;;;;;;6.22;93.95;99655.78;5120501;27;20545;-69
2023/02/24 03:03:51;;;;;;;26.52;12.07;;;;;;;6.05;93.47;99646.00;5120420;27;20020;-69
2023/02/24 03:06:23;;;;;;;32.80;12.65;;;;;;;6.07;93.98;99654.03;5112066;28;20030;-69
2023/02/24 03:08:57;;;;;;;35.67;11.82;;;;;;;6.05;93.70;99648.78;5111138;27;20095;-69
2023/02/24 03:11:23;;;;;;;29.90;12.98;;;;;;;6.14;93.04;99643.38;5122562;27;20088;-69
2023/02/24 03:13:52;;;;;;;31.00;12.38;;;;;;;6.09;92.97;99646.22;5117455;27;20485;-69
2023/02/24 03:16:21;;;;;;;33.43;13.53;;;;;;;5.96;93.63;99643.06;5130190;27;20444;-69
2023/02/24 03:18:58;;;;;;;23.98;11.20;;;;;;;5.92;94.04;99642.00;5110129;28;20555;-69
2023/02/24 03:21:31;;;;;;;24.52;11.25;;;;;;;5.93;94.10;99631.72;5112931;27;20024;-69
2023/02/24 03:23:58;;;;;;;35.38;10.98;;;;;;;5.96;93.66;99643.06;5110288;27;20039;-69
2023/02/24 03:26:40;;;;;;;32.05;12.88;;;;;;;5.94;93.40;99644.47;5110273;28;20019;-69
2023/02/24 03:29:18;;;;;;;29.92;12.68;;;;;;;6.07;93.48;99645.72;5108687;28;20051;-69
2023/02/24 03:31:50;;;;;;;34.08;12.30;;;;;;;6.06;92.38;99647.66;5125615;27;20517;-69
2023/02/24 03:34:19;;;;;;;36.38;12.25;;;;;;;6.17;92.33;99642.78;5132283;27;20111;-69
2023/02/24 03:36:46;;;;;;;38.75;12.20;;;;;;;6.09;92.26;99635.13;5121736;27;20031;-69
2023/02/24 03:39:11;;;;;;;33.05;13.23;;;;;;;6.15;92.31;99639.47;5110267;28;20037;-69
2023/02/24 03:41:55;;;;;;;34.33;11.20;;;;;;;6.13;91.97;99636.16;5110180;28;20114;-69
2023/02/24 03:44:20;;;;;;;33.83;13.15;;;;;;;6.17;92.27;99635.25;5112810;28;20062;-69
2023/02/24 03:46:46;;;;;;;29.70;13.05;;;;;;;6.03;92.14;99629.66;5118496;27;20054;-69
2023/02/24 03:49:15;;;;;;;39.30;12.77;;;;;;;6.06;92.26;99631.00;5111683;28;20176;-69
2023/02/24 03:51:43;;;;;;;29.23;13.50;;;;;;;6.10;91.97;99625.66;5111335;28;20027;-69
2023/02/24 03:54:11;;;;;;;45.35;14.73;;;;;;;6.11;91.28;99630.94;5110537;28;20051;-69
2023/02/24 03:56:57;;;;;;;44.05;13.93;;;;;;;6.09;92.05;99629.56;5115901;28;20053;-69
2023/02/24 04:00:21;;;;;;;37.20;14.57;;;;;;;6.04;91.92;99631.31;5111819;28;20050;-69
2023/02/24 04:02:56;;;;;;;29.00;13.25;;;;;;;5.97;92.45;99627.19;5109069;28;20048;-69
2023/02/24 04:05:26;;;;;;;36.03;14.77;;;;;;;5.99;91.66;99625.78;5110036;28;20032;-69
2023/02/24 04:07:59;;;;;;;;;;;;;;;6.04;91.41;99628.53;5117600;28;20437;-69
2023/02/24 04:10:51;;;;;;;28.25;12.95;;;;;;;5.97;92.26;99622.47;5115539;28;19911;-69
2023/02/24 04:13:34;;;;;;;35.95;12.98;;;;;;;5.99;91.86;99625.78;5114150;28;20016;-69
2023/02/24 04:16:15;;;;;;;36.15;14.68;;;;;;;6.17;91.09;99615.81;5128546;27;20031;-69
2023/02/24 04:18:47;;;;;;;37.35;13.77;;;;;;;6.18;90.93;99606.34;5114710;28;20024;-69
2023/02/24 04:21:15;;;;;;;45.08;14.00;;;;;;;6.25;90.39;99611.53;5113981;28;20028;-69
2023/02/24 04:23:43;;;;;;;36.78;15.77;;;;;;;6.15;90.56;99611.69;5113839;28;20050;-69
2023/02/24 04:26:12;;;;;;;40.08;14.38;;;;;;;6.21;89.89;99613.28;5117738;27;20054;-69
2023/02/24 04:28:40;;;;;;;25.27;12.25;;;;;;;6.29;88.94;99604.25;5117717;27;20034;-69
2023/02/24 04:31:15;;;;;;;39.25;12.13;;;;;;;6.12;89.84;99609.53;5113838;28;20034;-69
2023/02/24 04:33:41;;;;;;;37.00;12.30;;;;;;;5.92;90.66;99603.13;5113292;28;20016;-69
2023/02/24 04:36:07;;;;;;;31.98;13.63;;;;;;;6.11;90.40;99622.59;5115093;27;20510;-69
2023/02/24 04:38:34;;;;;;;31.77;12.65;;;;;;;6.04;90.53;99616.59;5112624;28;20031;-69
2023/02/24 04:41:00;;;;;;;32.50;13.00;;;;;;;5.95;91.23;99610.03;5115032;28;20076;-69
2023/02/24 04:43:25;;;;;;;39.55;15.50;;;;;;;6.05;90.80;99612.69;5113449;28;20024;-69
2023/02/24 04:45:51;;;;;;;36.88;14.55;;;;;;;5.94;90.58;99612.00;5125618;27;20031;-69
2023/02/24 04:48:18;;;;;;;52.75;14.77;;;;;;;5.95;90.62;99607.25;5114119;28;20379;-69
2023/02/24 04:50:44;;;;;;;40.92;16.20;;;;;;;5.93;90.86;99610.34;5113778;28;20023;-69
2023/02/24 04:53:15;;;;;;;33.53;14.25;;;;;;;5.95;90.89;99604.47;5112973;28;20068;-69
2023/02/24 04:55:47;;;;;;;39.10;15.15;;;;;;;6.01;90.82;99608.84;5114987;27;20566;-69
2023/02/24 04:58:18;;;;;;;36.15;16.00;;;;;;;5.85;91.29;99606.28;5121158;27;20043;-69
2023/02/24 05:00:47;;;;;;;38.13;14.68;;;;;;;5.82;91.61;99606.06;5114620;28;20407;-69
2023/02/24 05:03:12;;;;;;;68.68;17.40;;;;;;;5.82;92.82;99597.72;5114383;28;20023;-69
2023/02/24 05:05:38;;;;;;;51.33;16.00;;;;;;;5.87;92.01;99594.88;5114980;27;20039;-69
2023/02/24 05:08:06;;;;;;;38.00;15.95;;;;;;;5.81;92.15;99594.13;5121353;27;20024;-69
2023/02/24 05:10:43;;;;;;;47.78;16.65;;;;;;;5.88;92.30;99599.28;5114436;28;20023;-69
2023/02/24 05:13:14;;;;;;;36.33;15.38;;;;;;;5.90;91.61;99599.81;5114393;28;20055;-69
2023/02/24 05:15:41;;;;;;;42.95;15.48;;;;;;;5.86;91.82;99594.06;5124345;27;20031;-69
2023/02/24 05:18:24;;;;;;;39.83;14.73;;;;;;;5.99;91.54;99599.97;5110625;28;20035;-69
2023/02/24 05:23:44;;;;;;;37.35;16.80;;;;;;;6.02;91.26;99603.00;5112039;28;20109;-68
2023/02/24 05:26:15;;;;;;;49.97;16.90;;;;;;;5.98;90.65;99604.69;5112550;28;20483;-70
2023/02/24 05:28:42;;;;;;;39.13;14.77;;;;;;;6.04;90.41;99606.31;5113021;28;20433;-69
2023/02/24 05:31:18;;;;;;;44.05;16.80;;;;;;;6.03;90.77;99604.66;5114224;27;20100;-70
2023/02/24 05:33:47;;;;;;;42.65;16.75;;;;;;;5.96;91.14;99604.19;5114284;28;20047;-70
2023/02/24 05:36:17;;;;;;;36.55;14.60;;;;;;;5.97;91.30;99605.81;5115399;27;20023;-69
2023/02/24 05:38:44;;;;;;;43.17;16.42;;;;;;;6.13;90.71;99613.94;5111532;28;20042;-70
2023/02/24 05:41:15;;;;;;;44.15;14.18;;;;;;;6.03;90.44;99610.22;5113804;28;20030;-71
2023/02/24 05:43:54;;;;;;;37.60;12.32;;;;;;;6.03;90.33;99610.22;5113605;28;20095;-74
2023/02/24 05:46:28;;;;;;;45.03;13.65;;;;;;;6.02;91.08;99611.31;5130181;27;20096;-71
2023/02/24 05:48:57;;;;;;;34.65;12.80;;;;;;;6.02;90.39;99603.00;5113425;27;20031;-70
2023/02/24 05:51:24;;;;;;;40.83;14.52;;;;;;;5.90;91.46;99602.59;5113675;28;20031;-72
2023/02/24 05:53:54;;;;;;;46.03;16.70;;;;;;;6.04;91.19;99602.69;5109119;28;20045;-72
2023/02/24 05:56:23;;;;;;;43.55;15.18;;;;;;;6.02;91.36;99614.09;5114513;27;20023;-72
2023/02/24 05:59:00;;;;;;;52.83;15.87;;;;;;;6.02;90.96;99604.97;5111942;28;20513;-72
2023/02/24 06:01:33;;;;;;;54.83;16.15;;;;;;;6.04;90.80;99617.44;5113362;28;20022;-72
2023/02/24 06:04:06;;;;;;;41.60;15.07;;;;;;;6.07;90.91;99612.38;5092040;28;20114;-72
2023/02/24 06:06:36;;;;;;;54.50;18.25;;;;;;;6.12;90.40;99613.13;5106934;27;20124;-72
2023/02/24 06:09:09;;;;;;;55.50;19.55;;;;;;;6.06;90.11;99619.06;5110549;27;20035;-72
2023/02/24 06:11:36;;;;;;;54.17;19.67;;;;;;;6.15;89.18;99617.25;5113132;27;20027;-73
2023/02/24 06:14:05;;;;;;;60.22;26.20;;;;;;;6.04;90.28;99617.44;5113261;28;20501;-72
2023/02/24 06:16:32;;;;;;;93.45;31.67;;;;;;;6.14;90.56;99624.75;5116611;27;20510;-71
2023/02/24 06:18:57;;;;;;;52.03;18.25;;;;;;;6.24;89.15;99621.00;5113077;28;20444;-71
2023/02/24 06:21:28;;;;;;;45.17;18.80;;;;;;;6.21;89.48;99624.38;5118801;27;20113;-74
2023/02/24 06:23:57;;;;;;;52.95;17.17;;;;;;;6.14;90.51;99621.97;5121230;27;20043;-72
2023/02/24 06:26:28;;;;;;;38.03;15.73;;;;;;;6.24;89.96;99626.53;5111465;27;20034;-73
2023/02/24 06:28:58;;;;;;;53.53;18.00;;;;;;;6.24;89.64;99632.09;5119496;27;20102;-71
2023/02/24 06:31:25;;;;;;;40.35;16.15;;;;;;;6.23;90.14;99618.53;5104563;28;20417;-71
2023/02/24 06:33:52;;;;;;;51.40;18.85;;;;;;;6.26;89.91;99615.16;5104244;28;20774;-72
2023/02/24 06:36:18;;;;;;;49.17;18.42;;;;;;;6.23;89.83;99611.00;5110028;28;20373;-72
2023/02/24 06:38:44;;;;;;;59.47;16.67;;;;;;;6.16;90.59;99608.63;5110031;28;20503;-72
2023/02/24 06:41:11;;;;;;;54.80;18.23;;;;;;;6.26;89.94;99612.38;5107235;28;20106;-71
2023/02/24 06:43:45;;;;;;;41.75;15.10;;;;;;;6.21;90.52;99610.50;5107703;28;20032;-71
2023/02/24 06:46:12;;;;;;;46.72;16.02;;;;;;;6.31;90.46;99604.78;5105378;28;20528;-71
2023/02/24 06:48:38;;;;;;;70.78;31.58;;;;;;;6.29;89.98;99607.03;5107413;28;20028;-71
2023/02/24 06:51:04;;;;;;;93.35;43.40;;;;;;;6.36;89.68;99606.66;5108568;28;20027;-71
2023/02/24 06:53:33;;;;;;;52.63;20.52;;;;;;;6.35;89.51;99604.16;5110941;27;20031;-71
2023/02/24 06:56:05;;;;;;;53.95;22.90;;;;;;;6.25;90.52;99603.19;5104096;27;20020;-75
2023/02/24 06:58:31;;;;;;;90.53;39.55;;;;;;;6.41;90.10;99605.75;5106792;28;20024;-73
2023/02/24 07:00:57;;;;;;;87.78;37.20;;;;;;;6.44;89.17;99603.16;5110046;28;20035;-73
2023/02/24 07:03:38;;;;;;;87.43;42.08;;;;;;;6.71;88.39;99611.88;5115830;27;20410;-73
2023/02/24 07:06:22;;;;;;;52.55;19.15;;;;;;;6.55;88.58;99606.59;5113592;27;20054;-73
2023/02/24 07:08:47;;;;;;;40.25;18.10;;;;;;;6.65;88.35;99607.56;5101043;28;20027;-73
2023/02/24 07:11:16;;;;;;;49.60;19.33;;;;;;;6.60;88.87;99606.50;5108966;27;20085;-73
2023/02/24 07:13:42;;;;;;;53.38;17.23;;;;;;;6.59;88.83;99595.69;5113942;27;20026;-72
2023/02/24 07:16:14;;;;;;;56.65;21.15;;;;;;;6.73;88.19;99599.31;5105161;27;20397;-73
2023/02/24 07:18:41;;;;;;;57.92;17.60;;;;;;;6.73;87.58;99606.81;5110674;27;20433;-72
2023/02/24 07:21:15;;;;;;;53.63;19.15;;;;;;;6.76;87.88;99611.81;5108599;28;20031;-72
2023/02/24 07:23:41;;;;;;;55.60;20.92;;;;;;;6.74;88.33;99598.19;5105918;27;20047;-72
2023/02/24 07:26:13;;;;;;;58.55;21.73;;;;;;;6.73;88.35;99604.03;5105102;28;20042;-72
2023/02/24 07:28:40;;;;;;;60.92;20.88;;;;;;;6.92;87.72;99605.94;5098344;28;20023;-71
2023/02/24 07:31:09;;;;;;;59.80;20.73;;;;;;;7.09;86.37;99605.34;5110702;28;20443;-72
2023/02/24 07:33:45;;;;;;;65.30;19.33;;;;;;;7.07;86.10;99602.84;5110131;28;20023;-72
2023/02/24 07:36:17;;;;;;;54.53;20.60;;;;;;;7.12;86.21;99600.00;5111712;28;20023;-71
2023/02/24 07:38:44;;;;;;;52.63;20.10;;;;;;;6.74;87.32;99603.75;5109852;28;20500;-71
2023/02/24 07:41:14;;;;;;;62.95;21.10;;;;;;;6.71;88.50;99606.31;5109098;27;20023;-72
2023/02/24 07:43:42;;;;;;;69.32;22.60;;;;;;;6.77;88.52;99610.66;5108848;28;20032;-72
2023/02/24 07:46:18;;;;;;;52.83;18.65;;;;;;;6.95;87.12;99599.75;5109218;28;20028;-72
2023/02/24 07:48:45;;;;;;;48.53;18.35;;;;;;;7.09;86.18;99608.94;5110970;28;20023;-74
2023/02/24 07:51:13;;;;;;;57.13;19.45;;;;;;;7.20;85.73;99606.78;5109568;28;20023;-73
2023/02/24 07:53:39;;;;;;;62.97;19.45;;;;;;;7.30;84.33;99595.47;5111125;28;20092;-72
2023/02/24 07:56:13;;;;;;;63.55;21.38;;;;;;;7.23;84.89;99600.59;5111223;28;20034;-70
2023/02/24 07:58:43;;;;;;;58.75;19.45;;;;;;;7.40;83.83;99594.41;5103540;28;20024;-70
2023/02/24 08:01:22;;;;;;;56.42;20.42;;;;;;;7.63;82.83;99597.28;5107840;28;20080;-71
2023/02/24 08:03:54;;;;;;;56.88;19.30;;;;;;;7.66;82.13;99585.50;5110027;28;20414;-70
2023/02/24 08:06:30;;;;;;;71.35;21.15;;;;;;;7.73;82.01;99591.47;5111453;28;20020;-71
2023/02/24 08:09:09;;;;;;;62.42;20.73;;;;;;;7.12;84.39;99593.59;5109775;28;20027;-70
2023/02/24 08:11:35;;;;;;;61.55;21.50;;;;;;;6.58;88.40;99597.63;5109135;28;20034;-72
2023/02/24 08:14:12;;;;;;;61.63;21.58;;;;;;;6.69;89.22;99586.34;5112017;28;20390;-71
2023/02/24 08:16:44;;;;;;;73.03;22.48;;;;;;;6.55;90.07;99592.69;5100614;28;20027;-72
2023/02/24 08:19:12;;;;;;;69.57;25.48;;;;;;;6.59;90.41;99596.50;5109557;28;20020;-68
2023/02/24 08:21:46;;;;;;;77.00;29.15;;;;;;;5.90;94.83;99591.47;5101016;28;20515;-71
2023/02/24 08:24:22;;;;;;;70.22;26.20;;;;;;;6.15;94.96;99592.25;5102009;28;20048;-71
2023/02/24 08:27:04;;;;;;;75.38;27.08;;;;;;;6.54;93.98;99593.00;5106784;28;20077;-69
2023/02/24 08:29:38;;;;;;;62.88;23.75;;;;;;;6.82;91.16;99590.28;5100100;28;20516;-71
2023/02/24 08:32:08;;;;;;;58.08;23.00;;;;;;;6.96;89.13;99579.16;5101861;28;20080;-72
2023/02/24 08:34:37;;;;;;;63.90;22.75;;;;;;;7.12;88.83;99588.88;5099015;28;20032;-70
2023/02/24 08:37:03;;;;;;;67.25;22.92;;;;;;;7.27;87.49;99592.47;5103176;28;20028;-71
2023/02/24 08:39:29;;;;;;;68.55;24.80;;;;;;;7.50;86.05;99581.41;5106739;28;20031;-71
2023/02/24 08:41:57;;;;;;;55.97;22.95;;;;;;;7.63;84.95;99574.16;5106085;28;20028;-72
2023/02/24 08:44:26;;;;;;;69.80;25.05;;;;;;;7.80;84.31;99581.84;5100208;28;20027;-70
2023/02/24 08:46:53;;;;;;;66.95;24.98;;;;;;;7.21;85.99;99582.56;5100351;28;20035;-72
2023/02/24 08:49:20;;;;;;;58.45;25.38;;;;;;;7.33;86.87;99577.28;5105081;28;20028;-71
2023/02/24 08:51:48;;;;;;;75.00;31.58;;;;;;;7.43;85.73;99577.09;5107512;28;20036;-69
2023/02/24 08:54:25;;;;;;;60.20;26.98;;;;;;;7.52;85.89;99574.38;5108204;28;20123;-69
2023/02/24 08:56:54;;;;;;;99.35;42.30;;;;;;;7.47;85.71;99571.72;5109890;28;20031;-69
2023/02/24 08:59:39;;;;;;;84.95;28.48;;;;;;;7.18;87.56;99564.56;5110350;28;20448;-70
2023/02/24 09:05:03;;;;;;;69.85;29.10;;;;;;;7.26;88.21;99554.66;5111649;28;20059;-70
2023/02/24 09:07:34;;;;;;;69.47;31.02;;;;;;;7.59;86.84;99554.47;5109668;28;20080;-70
2023/02/24 09:10:01;;;;;;;52.88;23.95;;;;;;;7.50;85.58;99550.81;5109829;28;20053;-70
2023/02/24 09:12:29;;;;;;;70.20;25.17;;;;;;;7.69;86.23;99548.69;5104593;28;20034;-68
2023/02/24 09:14:55;;;;;;;67.95;24.13;;;;;;;8.05;83.93;99540.59;5112099;28;20047;-70
2023/02/24 09:17:39;;;;;;;63.75;26.73;;;;;;;8.29;82.17;99546.69;5108718;28;20027;-72
2023/02/24 09:22:56;;;;;;;59.97;24.00;;;;;;;8.21;81.19;99541.06;5112388;28;20451;-68
2023/02/24 09:25:24;;;;;;;62.60;25.45;;;;;;;8.26;81.45;99535.34;5111503;28;20031;-72
2023/02/24 09:28:19;;;;;;;65.57;28.52;;;;;;;8.29;81.70;99534.72;5104837;28;20024;-68
2023/02/24 09:30:51;;;;;;;83.95;30.48;;;;;;;8.49;80.14;99533.38;5106625;28;20102;-69
2023/02/24 09:33:27;;;;;;;63.08;25.58;;;;;;;8.70;79.60;99525.28;5112802;28;20030;-67
2023/02/24 09:36:01;;;;;;;62.38;25.30;;;;;;;8.47;80.03;99526.44;5113369;28;20545;-69
2023/02/24 09:42:27;;;;;;;51.70;24.48;;;;;;;8.80;79.39;99517.78;5113447;28;20042;-71
2023/02/24 09:44:51;;;;;;;52.80;23.80;;;;;;;8.54;79.74;99515.72;5093354;28;20051;-69
2023/02/24 09:47:55;;;;;;;64.18;25.00;;;;;;;8.68;79.78;99516.44;5093860;27;20035;-69
2023/02/24 09:50:23;;;;;;;47.58;22.45;;;;;;;8.60;79.54;99514.41;5093320;27;20039;-68
2023/02/24 09:52:52;;;;;;;45.17;19.17;;;;;;;8.24;80.72;99510.59;5112995;28;20024;-68
2023/02/24 09:55:34;;;;;;;52.70;23.17;;;;;;;7.89;82.90;99498.38;5113418;28;20077;-68
2023/02/24 09:58:27;;;;;;;60.92;24.92;;;;;;;8.55;80.80;99490.28;5112368;28;20015;-70
2023/02/24 10:01:19;;;;;;;69.47;29.17;;;;;;;8.57;80.30;99489.97;5113029;28;20462;-68
2023/02/24 10:04:21;;;;;;;57.22;22.95;;;;;;;8.45;79.92;99482.19;5108870;27;20044;-71
2023/02/24 10:07:22;;;;;;;56.60;22.90;;;;;;;8.23;81.52;99472.72;5102258;27;20038;-67
2023/02/24 10:10:00;;;;;;;41.22;18.90;;;;;;;8.62;79.88;99477.84;5041205;28;20045;-67
2023/02/24 10:12:38;;;;;;;49.45;24.00;;;;;;;8.78;79.79;99473.47;5102169;28;20067;-68
2023/02/24 10:15:19;;;;;;;63.78;28.63;;;;;;;9.34;77.00;99460.97;5103703;28;20084;-70
2023/02/24 10:17:54;;;;;;;47.22;21.45;;;;;;;9.40;76.00;99457.66;5101020;28;20494;-72
2023/02/24 10:20:38;;;;;;;46.67;24.40;;;;;;;9.69;73.63;99463.75;5099045;27;20030;-72
2023/02/24 10:23:23;;;;;;;48.17;23.08;;;;;;;9.18;76.11;99450.28;5107522;27;20031;-71
2023/02/24 10:26:06;;;;;;;39.42;19.48;;;;;;;8.92;76.02;99451.06;5106348;28;20028;-69
2023/02/24 10:28:56;;;;;;;45.03;22.20;;;;;;;9.09;75.66;99447.47;5108636;28;20505;-70
2023/02/24 10:31:42;;;;;;;80.28;51.03;;;;;;;9.59;74.98;99442.56;5101934;27;20115;-72
2023/02/24 10:34:12;;;;;;;59.03;29.10;;;;;;;9.90;73.17;99433.19;5108250;27;20401;-69
2023/02/24 10:36:38;;;;;;;48.08;23.95;;;;;;;10.26;71.19;99428.31;5106023;28;20028;-69
2023/02/24 10:39:19;;;;;;;43.80;23.45;;;;;;;10.41;69.75;99418.59;5106699;28;20024;-70
2023/02/24 10:41:56;;;;;;;42.38;19.63;;;;;;;10.59;68.78;99415.72;5100374;28;20027;-70
2023/02/24 10:44:34;;;;;;;42.03;19.50;;;;;;;10.72;68.17;99417.44;5097314;28;20020;-69
2023/02/24 10:47:12;;;;;;;38.40;20.50;;;;;;;10.39;69.43;99402.13;5109168;28;20051;-71
2023/02/24 10:49:41;;;;;;;40.13;18.63;;;;;;;10.37;69.05;99403.59;5106604;27;20034;-70
2023/02/24 10:52:35;;;;;;;38.08;21.15;;;;;;;10.43;69.46;99396.72;5105437;28;20039;-71
2023/02/24 10:55:07;;;;;;;43.38;22.67;;;;;;;9.90;70.70;99396.03;5104729;28;20031;-71
2023/02/24 10:57:48;;;;;;;42.25;19.48;;;;;;;9.31;74.09;99381.50;5114253;27;20035;-71
2023/02/24 11:00:29;;;;;;;35.92;19.40;;;;;;;9.72;71.62;99384.91;5105761;28;20024;-71
2023/02/24 11:03:05;;;;;;;43.97;19.15;;;;;;;9.85;70.96;99373.88;5103832;27;20081;-74
2023/02/24 11:05:42;;;;;;;34.67;18.17;;;;;;;10.29;70.30;99371.75;5105640;27;20026;-71
2023/02/24 11:08:35;;;;;;;37.47;17.83;;;;;;;10.05;70.85;99367.56;5103272;28;20113;-70
2023/02/24 11:11:05;;;;;;;40.35;18.70;;;;;;;10.16;70.66;99376.41;5105055;28;20107;-73
2023/02/24 11:19:00;;;;;;;41.65;20.40;;;;;;;10.08;69.14;99352.94;5106654;28;20035;-71
2023/02/24 11:21:27;;;;;;;50.47;26.27;;;;;;;10.20;68.70;99357.00;5105410;28;20019;-69
2023/02/24 11:23:58;;;;;;;153.85;74.75;;;;;;;10.33;67.95;99350.34;5109221;28;20055;-70
2023/02/24 11:26:39;;;;;;;39.03;20.83;;;;;;;9.61;69.64;99348.13;5109783;28;20023;-69
2023/02/24 11:29:26;;;;;;;36.92;19.33;;;;;;;10.04;68.60;99351.13;5109835;28;20171;-71
2023/02/24 11:32:09;;;;;;;167.68;75.50;;;;;;;10.28;68.48;99347.72;5106988;28;20016;-69
2023/02/24 11:34:38;;;;;;;40.38;19.65;;;;;;;9.73;69.97;99346.63;5107310;28;20039;-69
2023/02/24 11:37:14;;;;;;;31.33;16.60;;;;;;;9.71;70.63;99340.53;5109574;28;20034;-70
2023/02/24 11:39:52;;;;;;;30.70;17.25;;;;;;;9.89;69.81;99338.53;5098994;28;20553;-67
2023/02/24 11:42:37;;;;;;;215.55;113.65;;;;;;;10.24;68.39;99336.41;5107221;28;20020;-68
2023/02/24 11:45:12;;;;;;;50.63;25.67;;;;;;;10.13;67.56;99332.34;5107192;27;20110;-68
2023/02/24 11:47:44;;;;;;;39.58;19.35;;;;;;;9.96;69.08;99325.69;5106963;28;20051;-68
2023/02/24 11:50:29;;;;;;;36.38;19.15;;;;;;;9.85;69.54;99326.38;5108410;28;20121;-68
2023/02/24 11:52:59;;;;;;;35.42;18.65;;;;;;;10.10;69.47;99319.88;5106679;28;20486;-67
2023/02/24 11:55:37;;;;;;;44.80;24.25;;;;;;;10.10;68.76;99322.66;5108061;28;20027;-67
2023/02/24 11:58:14;;;;;;;43.45;22.73;;;;;;;10.23;68.31;99322.78;5107102;28;20541;-68
2023/02/24 12:00:50;;;;;;;41.17;22.05;;;;;;;9.71;70.40;99316.22;5103717;28;20529;-68
2023/02/24 12:03:32;;;;;;;37.47;20.35;;;;;;;10.04;69.81;99320.41;5104136;28;20128;-67
2023/02/24 12:06:11;;;;;;;41.28;21.80;;;;;;;9.63;70.54;99308.69;5107727;28;20030;-68
2023/02/24 12:08:43;;;;;;;90.85;51.20;;;;;;;9.91;69.86;99305.47;5107447;28;20031;-70
2023/02/24 12:11:44;;;;;;;34.90;19.58;;;;;;;10.20;69.05;99301.91;5108111;28;20068;-70